createdAt,value
2019-02-12T00:00:57.297Z,50.49
2019-02-12T00:05:02.970Z,50.82
2019-02-12T00:09:10.289Z,50.68
2019-02-12T00:13:15.978Z,50.59
2019-02-12T00:17:21.823Z,50.50
2019-02-12T00:21:28.476Z,50.49
2019-02-12T00:25:34.276Z,50.54
2019-02-12T00:29:39.916Z,51.07
2019-02-12T00:33:45.593Z,50.98
2019-02-12T00:37:51.314Z,51.20
2019-02-12T00:41:57.005Z,51.42
2019-02-12T00:46:02.687Z,51.43
2019-02-12T00:50:11.556Z,51.22
2019-02-12T00:54:18.207Z,51.48
2019-02-12T00:58:23.892Z,50.72
2019-02-12T01:02:29.561Z,50.62
2019-02-12T01:06:35.293Z,50.30
2019-02-12T01:10:41.031Z,50.86
2019-02-12T01:14:46.704Z,50.52
2019-02-12T01:18:52.370Z,50.27
2019-02-12T01:22:58.057Z,50.58
2019-02-12T01:27:03.741Z,50.59
2019-02-12T01:31:09.422Z,50.77
2019-02-12T01:35:15.136Z,50.82
2019-02-12T01:39:20.940Z,51.32
2019-02-12T01:43:26.637Z,51.84
2019-02-12T01:47:32.352Z,51.30
2019-02-12T01:51:38.047Z,51.94
2019-02-12T01:55:43.732Z,52.15
2019-02-12T01:59:49.405Z,51.64
2019-02-12T02:03:55.093Z,52.22
2019-02-12T02:08:00.792Z,51.85
2019-02-12T02:12:06.487Z,51.68
2019-02-12T02:16:12.157Z,51.32
2019-02-12T02:20:17.854Z,51.19
2019-02-12T02:24:25.188Z,51.11
2019-02-12T02:28:30.949Z,50.86
2019-02-12T02:32:36.617Z,50.81
2019-02-12T02:36:42.322Z,50.90
2019-02-12T02:40:48.013Z,50.71
2019-02-12T02:44:53.679Z,50.65
2019-02-12T02:48:59.400Z,50.53
2019-02-12T02:53:05.093Z,49.99
2019-02-12T02:57:10.757Z,50.09
2019-02-12T03:01:16.439Z,50.41
2019-02-12T03:05:22.163Z,50.12
2019-02-12T03:09:27.831Z,49.88
2019-02-12T03:13:33.877Z,49.87
2019-02-12T03:17:39.696Z,49.97
2019-02-12T03:21:45.382Z,50.00
2019-02-12T03:25:52.690Z,49.94
2019-02-12T03:29:58.354Z,50.34
2019-02-12T03:34:04.046Z,50.85
2019-02-12T03:38:09.701Z,50.68
2019-02-12T03:42:15.447Z,50.37
2019-02-12T03:46:21.277Z,50.14
2019-02-12T03:50:26.957Z,49.77
2019-02-12T03:54:32.705Z,49.65
2019-02-12T03:58:38.434Z,49.47
2019-02-12T04:03:07.987Z,49.03
2019-02-12T04:07:13.668Z,48.75
2019-02-12T04:11:19.415Z,48.57
2019-02-12T04:15:25.184Z,48.83
2019-02-12T04:19:30.877Z,49.15
2019-02-12T04:23:36.702Z,49.31
2019-02-12T04:27:43.521Z,49.43
2019-02-12T04:31:49.202Z,49.55
2019-02-12T04:35:54.856Z,49.69
2019-02-12T04:40:00.532Z,49.79
2019-02-12T04:44:06.210Z,50.08
2019-02-12T04:48:11.885Z,50.54
2019-02-12T04:52:17.569Z,50.11
2019-02-12T04:56:23.274Z,50.16
2019-02-12T05:00:30.619Z,50.07
2019-02-12T05:04:36.319Z,50.29
2019-02-12T05:09:15.226Z,49.82
2019-02-12T05:13:20.919Z,49.97
2019-02-12T05:17:26.609Z,49.78
2019-02-12T05:21:32.295Z,49.69
2019-02-12T05:25:38.065Z,49.62
2019-02-12T05:29:43.751Z,49.67
2019-02-12T05:33:49.460Z,49.53
2019-02-12T05:37:55.180Z,49.66
2019-02-12T05:42:00.839Z,49.20
2019-02-12T05:46:06.528Z,49.13
2019-02-12T05:50:15.384Z,49.07
2019-02-12T05:54:21.118Z,48.86
2019-02-12T05:58:26.805Z,49.08
2019-02-12T06:02:32.471Z,48.85
2019-02-12T06:06:38.159Z,48.55
2019-02-12T06:10:46.039Z,48.75
2019-02-12T06:14:51.725Z,48.76
2019-02-12T06:18:57.438Z,48.53
2019-02-12T06:23:04.241Z,48.39
2019-02-12T06:27:10.089Z,48.30
2019-02-12T06:31:15.780Z,48.26
2019-02-12T06:35:21.529Z,48.38
2019-02-12T06:39:27.201Z,48.19
2019-02-12T06:43:32.896Z,47.72
2019-02-12T06:47:38.579Z,47.27
2019-02-12T06:51:44.365Z,47.01
2019-02-12T06:55:50.047Z,47.25
2019-02-12T06:59:55.729Z,47.38
2019-02-12T07:04:01.447Z,46.93
2019-02-12T07:08:31.312Z,47.25
2019-02-12T07:12:56.514Z,47.37
2019-02-12T07:17:09.338Z,47.31
2019-02-12T07:21:46.596Z,47.39
2019-02-12T07:26:02.505Z,47.43
2019-02-12T07:30:36.508Z,47.57
2019-02-12T07:34:58.831Z,47.09
2019-02-12T07:39:27.099Z,47.16
2019-02-12T07:44:05.588Z,47.06
2019-02-12T07:48:50.404Z,47.19
2019-02-12T07:53:15.543Z,47.48
2019-02-12T07:57:49.889Z,46.82
2019-02-12T08:02:05.684Z,46.88
2019-02-12T08:06:36.476Z,46.25
2019-02-12T08:11:21.259Z,46.49
2019-02-12T08:15:48.876Z,45.95
2019-02-12T08:20:21.504Z,46.05
2019-02-12T08:24:47.689Z,45.52
2019-02-12T08:29:30.261Z,45.33
2019-02-12T08:34:04.662Z,44.48
2019-02-12T08:38:26.494Z,44.08
2019-02-12T08:42:48.671Z,43.82
2019-02-12T08:47:15.174Z,43.41
2019-02-12T08:51:34.231Z,42.55
2019-02-12T08:56:10.831Z,42.83
2019-02-12T09:00:26.853Z,43.05
2019-02-12T09:04:39.835Z,44.92
2019-02-12T09:09:07.760Z,44.25
2019-02-12T09:13:32.760Z,42.73
2019-02-12T09:18:14.195Z,45.04
2019-02-12T09:22:48.225Z,44.01
2019-02-12T09:27:04.043Z,43.19
2019-02-12T09:31:39.474Z,41.62
2019-02-12T09:36:03.002Z,40.89
2019-02-12T09:40:46.316Z,40.80
2019-02-12T09:45:14.299Z,40.01
2019-02-12T09:49:55.701Z,38.93
2019-02-12T09:54:32.665Z,38.71
2019-02-12T09:59:04.803Z,38.28
2019-02-12T10:03:40.519Z,38.07
2019-02-12T10:08:19.406Z,38.85
2019-02-12T10:12:41.888Z,40.10
2019-02-12T10:16:58.116Z,36.99
2019-02-12T10:21:32.184Z,35.03
2019-02-12T10:25:38.061Z,35.69
2019-02-12T10:29:59.987Z,36.00
2019-02-12T10:34:06.042Z,35.37
2019-02-12T10:42:17.468Z,36.86
2019-02-12T10:46:23.175Z,34.31
2019-02-12T10:50:28.942Z,35.46
2019-02-12T10:54:34.635Z,37.14
2019-02-12T10:58:41.321Z,38.69
2019-02-12T11:02:55.384Z,38.81
2019-02-12T11:07:01.082Z,39.06
2019-02-12T11:11:06.850Z,36.50
2019-02-12T11:15:12.761Z,39.39
2019-02-12T11:19:18.440Z,34.73
2019-02-12T11:23:24.156Z,37.18
2019-02-12T11:27:29.874Z,37.27
2019-02-12T11:31:35.565Z,35.89
2019-02-12T11:35:41.562Z,28.59
2019-02-12T11:39:47.251Z,29.34
2019-02-12T11:43:54.595Z,31.32
2019-02-12T11:48:02.466Z,33.28
2019-02-12T11:52:08.259Z,33.41
2019-02-12T11:56:13.925Z,35.81
2019-02-12T12:00:21.268Z,37.44
2019-02-12T12:04:26.960Z,36.69
2019-02-12T12:08:35.051Z,37.14
2019-02-12T12:12:40.835Z,39.13
2019-02-12T12:16:46.524Z,36.17
2019-02-12T12:20:52.222Z,37.72
2019-02-12T12:24:57.935Z,34.46
2019-02-12T12:29:03.637Z,34.33
2019-02-12T12:33:09.658Z,33.59
2019-02-12T12:37:15.393Z,37.05
2019-02-12T12:41:21.079Z,39.01
2019-02-12T12:45:26.863Z,36.54
2019-02-12T12:49:32.558Z,38.58
2019-02-12T12:53:38.271Z,38.10
2019-02-12T12:57:43.974Z,34.60
2019-02-12T13:01:49.697Z,39.57
2019-02-12T13:05:56.626Z,36.91
2019-02-12T13:10:02.302Z,38.37
2019-02-12T13:14:07.982Z,36.77
2019-02-12T13:18:13.676Z,35.04
2019-02-12T13:22:19.372Z,34.64
2019-02-12T13:26:25.188Z,33.66
2019-02-12T13:30:30.858Z,34.68
2019-02-12T13:34:36.537Z,35.18
2019-02-12T13:38:42.237Z,34.13
2019-02-12T13:42:47.941Z,34.67
2019-02-12T13:46:53.653Z,34.51
2019-02-12T13:50:59.363Z,34.13
2019-02-12T13:55:07.621Z,34.35
2019-02-12T13:59:13.314Z,34.67
2019-02-12T14:03:22.531Z,37.65
2019-02-12T14:07:27.771Z,36.51
2019-02-12T14:11:33.453Z,35.87
2019-02-12T14:15:39.228Z,38.29
2019-02-12T14:19:44.910Z,34.78
2019-02-12T14:23:50.623Z,34.22
2019-02-12T14:27:57.961Z,34.65
2019-02-12T14:32:03.741Z,37.10
2019-02-12T14:36:09.505Z,38.89
2019-02-12T14:40:17.103Z,39.10
2019-02-12T14:44:22.791Z,40.43
2019-02-12T14:48:28.494Z,37.09
2019-02-12T14:52:34.215Z,37.93
2019-02-12T14:56:39.929Z,41.64
2019-02-12T15:00:45.625Z,41.61
2019-02-12T15:04:51.323Z,37.63
2019-02-12T15:08:57.025Z,35.53
2019-02-12T15:13:02.713Z,38.52
2019-02-12T15:17:08.427Z,42.43
2019-02-12T15:21:14.208Z,37.61
2019-02-12T15:25:19.961Z,39.20
2019-02-12T15:29:25.688Z,39.73
2019-02-12T15:33:31.399Z,37.43
2019-02-12T15:37:37.096Z,41.09
2019-02-12T15:41:42.804Z,39.42
2019-02-12T15:45:48.492Z,36.36
2019-02-12T15:49:54.213Z,38.39
2019-02-12T15:53:59.883Z,38.82
2019-02-12T15:58:06.318Z,40.18
2019-02-12T16:02:13.682Z,39.84
2019-02-12T16:06:21.042Z,40.39
2019-02-12T16:10:26.896Z,42.73
2019-02-12T16:14:33.779Z,42.41
2019-02-12T16:18:39.575Z,38.73
2019-02-12T16:22:45.352Z,37.61
2019-02-12T16:26:52.302Z,37.71
2019-02-12T16:30:57.969Z,40.89
2019-02-12T16:35:04.321Z,41.76
2019-02-12T16:39:10.012Z,39.51
2019-02-12T16:43:18.637Z,42.13
2019-02-12T16:47:24.438Z,42.01
2019-02-12T16:52:20.811Z,43.01
2019-02-12T16:56:26.406Z,42.58
2019-02-12T17:01:18.009Z,41.61
2019-02-12T17:05:24.735Z,43.31
2019-02-12T17:10:15.179Z,42.87
2019-02-12T17:14:20.974Z,40.99
2019-02-12T17:18:26.982Z,39.25
2019-02-12T17:22:32.643Z,39.47
2019-02-12T17:26:38.347Z,42.61
2019-02-12T17:31:18.815Z,45.30
2019-02-12T17:35:24.946Z,45.95
2019-02-12T17:39:30.729Z,44.77
2019-02-12T17:43:36.438Z,45.41
2019-02-12T17:47:42.118Z,43.56
2019-02-12T17:52:17.727Z,45.97
2019-02-12T17:56:24.963Z,44.63
2019-02-12T18:00:37.197Z,46.71
2019-02-12T18:05:19.537Z,45.62
2019-02-12T18:09:26.068Z,46.29
2019-02-12T18:13:33.762Z,46.83
2019-02-12T18:17:40.882Z,47.12
2019-02-12T18:22:17.703Z,47.67
2019-02-12T18:26:23.433Z,47.65
2019-02-12T18:35:41.499Z,47.32
2019-02-12T18:39:47.175Z,45.69
2019-02-12T18:43:52.943Z,45.63
2019-02-12T18:47:58.660Z,46.36
2019-02-12T18:52:04.517Z,46.88
2019-02-12T18:56:10.283Z,44.98
2019-02-12T19:00:21.443Z,41.83
2019-02-12T19:04:27.384Z,41.21
2019-02-12T19:08:33.138Z,42.40
2019-02-12T19:12:39.567Z,45.55
2019-02-12T19:16:47.049Z,46.72
2019-02-12T19:20:52.818Z,48.65
2019-02-12T19:24:58.589Z,46.36
2019-02-12T19:29:04.334Z,44.39
2019-02-12T19:33:10.111Z,46.49
2019-02-12T19:37:15.888Z,46.21
2019-02-12T19:41:21.655Z,48.19
2019-02-12T19:45:27.528Z,48.08
2019-02-12T19:49:36.292Z,43.74
2019-02-12T19:54:19.686Z,47.27
2019-02-12T19:58:25.636Z,46.19
2019-02-12T20:03:16.712Z,47.08
2019-02-12T20:07:22.519Z,48.67
2019-02-12T20:12:16.294Z,42.09
2019-02-12T20:16:22.048Z,41.83
2019-02-12T20:21:16.049Z,42.20
2019-02-12T20:25:21.825Z,42.00
2019-02-12T20:30:15.144Z,42.44
2019-02-12T20:34:20.823Z,42.91
2019-02-12T20:43:20.249Z,45.97
2019-02-12T20:47:26.173Z,44.50
2019-02-12T20:51:31.853Z,46.24
2019-02-12T20:55:40.590Z,44.05
2019-02-12T21:00:22.488Z,47.78
2019-02-12T21:04:28.351Z,43.46
2019-02-12T21:09:15.966Z,43.46
2019-02-12T21:13:21.676Z,44.57
2019-02-12T21:17:27.577Z,44.13
2019-02-12T21:21:33.368Z,44.25
2019-02-12T21:25:39.837Z,43.47
2019-02-12T21:30:19.855Z,42.97
2019-02-12T21:34:25.660Z,43.08
2019-02-12T21:38:31.572Z,43.57
2019-02-12T21:42:38.627Z,46.35
2019-02-12T21:46:44.337Z,47.25
2019-02-12T21:51:19.450Z,45.32
2019-02-12T21:55:25.787Z,46.20
2019-02-12T21:59:31.494Z,45.40
2019-02-12T22:03:39.172Z,45.07
2019-02-12T22:07:46.882Z,51.71
2019-02-12T22:12:19.454Z,49.57
2019-02-12T22:16:25.266Z,48.96
2019-02-12T22:20:30.955Z,49.90
2019-02-12T22:24:38.251Z,50.03
2019-02-12T22:28:43.933Z,48.08
2019-02-12T22:33:07.734Z,49.43
2019-02-12T22:37:13.427Z,45.14
2019-02-12T22:41:19.117Z,48.86
2019-02-12T22:45:26.302Z,47.78
2019-02-12T22:49:32.163Z,45.39
2019-02-12T22:53:37.895Z,48.42
2019-02-12T22:57:49.423Z,52.45
2019-02-12T23:01:54.038Z,50.53
2019-02-12T23:06:00.017Z,48.46
2019-02-12T23:10:08.958Z,46.70
2019-02-12T23:14:14.837Z,50.56
2019-02-12T23:18:20.527Z,50.37
2019-02-12T23:22:26.222Z,48.27
2019-02-12T23:26:32.096Z,49.40
2019-02-12T23:30:37.873Z,48.40
2019-02-12T23:34:43.618Z,48.22
2019-02-12T23:38:49.300Z,54.55
2019-02-12T23:42:56.064Z,49.50
2019-02-12T23:47:01.757Z,51.90
2019-02-12T23:51:07.443Z,50.09
2019-02-12T23:55:13.128Z,46.37
2019-02-12T23:59:18.827Z,46.52
